Flight Track Log - Related Links

Times and Time Zones

All times are in EDT time to prevent confusion due to time zone crossing. See the N662US flight status page for this flight to view local times or setup timezone preferences in your user account.

Time Position Orientation Groundspeed Altitude Reporting Facility
EDT Latitude Longitude Course Direction KTS MPH feet Rate Location/Type
Mon 05:47:00 AM 35.6833 140.2891 224° Southwest  Level Estimated
Mon 05:48:00 AM 35.6019 140.1920 224° Southwest  Level Estimated
Mon 05:49:00 AM 35.5204 140.0952 224° Southwest  Level Estimated
Mon 05:50:00 AM 35.4388 139.9985 224° Southwest  Level Estimated
Mon 05:51:00 AM 35.3571 139.9020 224° Southwest  Level Estimated
Mon 05:52:00 AM 35.2703 139.7998 224° Southwest  Level Estimated
Mon 05:53:00 AM 35.1834 139.6979 224° Southwest  Level Estimated
Mon 05:54:00 AM 35.0965 139.5961 224° Southwest  Level Estimated
Mon 05:55:00 AM 35.0094 139.4946 224° Southwest  Level Estimated
Mon 05:56:00 AM 34.9223 139.3933 224° Southwest  Level Estimated
Mon 05:57:00 AM 34.8351 139.2922 224° Southwest  Level Estimated
Mon 05:58:00 AM 34.7478 139.1913 224° Southwest  Level Estimated
Mon 05:59:00 AM 34.6604 139.0906 223° Southwest  Level Estimated
Mon 06:00:00 AM 34.5729 138.9901 223° Southwest  Level Estimated
Mon 06:00:07 AM 35.3650 140.0480 223° Southwest 417 480 23,000  Level FlightAware ADS-B
Mon 06:00:47 AM 35.3480 139.9550 257° West 422 486 24,500 2,047 Climbing FlightAware ADS-B
Mon 06:01:32 AM 35.3300 139.8590 257° West 433 498 25,900 2,118 Climbing FlightAware ADS-B
Mon 06:02:12 AM 35.3090 139.7540 256° West 437 503 27,500 2,188 Climbing FlightAware ADS-B
Mon 06:02:57 AM 35.2880 139.6480 256° West 441 507 29,000 2,259 Climbing FlightAware ADS-B
Mon 06:03:37 AM 35.2690 139.5480 257° West 436 502 30,700 2,175 Climbing FlightAware ADS-B
Mon 06:04:17 AM 35.2510 139.4580 256° West 432 497 31,900 918 Climbing FlightAware ADS-B
Mon 06:05:02 AM 35.2290 139.3500 256° West 428 493 32,000 71 Climbing FlightAware ADS-B
Mon 06:05:42 AM 35.2090 139.2520 256° West 427 491 32,000  Level FlightAware ADS-B
Mon 06:06:22 AM 35.1910 139.1630 256° West 426 490 32,000  Level FlightAware ADS-B
Mon 06:06:57 AM 35.1730 139.0760 256° West 427 491 32,000  Level FlightAware ADS-B
Mon 06:08:02 AM 35.1430 138.9280 256° West 427 491 32,000  Level FlightAware ADS-B
Mon 06:08:37 AM 35.1250 138.8400 256° West 425 489 32,000  Level FlightAware ADS-B
Mon 06:09:22 AM 35.1040 138.7400 256° West 422 486 32,000  Level FlightAware ADS-B
Mon 06:10:07 AM 35.0840 138.6410 256° West 419 482 32,000  Level FlightAware ADS-B
Mon 06:10:47 AM 35.0640 138.5460 256° West 417 480 32,000  Level FlightAware ADS-B
Mon 06:11:32 AM 35.0420 138.4390 256° West 414 476 32,000  Level FlightAware ADS-B
Mon 06:12:12 AM 35.0230 138.3480 256° West 415 478 32,000  Level FlightAware ADS-B
Mon 06:12:57 AM 35.0020 138.2510 255° West 416 479 32,000  Level FlightAware ADS-B
Mon 06:13:37 AM 34.9820 138.1560 256° West 419 482 32,000  Level FlightAware ADS-B
Mon 06:14:17 AM 34.9640 138.0690 256° West 420 483 32,000  Level FlightAware ADS-B
Mon 06:15:02 AM 34.9410 137.9590 256° West 421 484 32,000  Level FlightAware ADS-B
Mon 06:15:42 AM 34.9210 137.8670 255° West 422 486 32,000  Level FlightAware ADS-B
Mon 06:16:27 AM 34.8980 137.7630 255° West 422 486 32,000  Level FlightAware ADS-B
Mon 06:17:07 AM 34.8780 137.6690 255° West 425 489 32,000  Level FlightAware ADS-B
Mon 06:17:52 AM 34.8320 137.5720 240° Southwest 461 531 32,000  Level FlightAware ADS-B
Mon 06:18:32 AM 34.7770 137.4920 230° Southwest 460 529 32,000  Level FlightAware ADS-B
Mon 06:19:12 AM 34.7220 137.4100 231° Southwest 462 532 32,000  Level FlightAware ADS-B
Mon 06:19:57 AM 34.6580 137.3260 227° Southwest 474 545 32,000  Level FlightAware ADS-B
Mon 06:20:37 AM 34.5770 137.2720 209° Southwest 511 588 32,000  Level FlightAware ADS-B
Mon 06:21:17 AM 34.4790 137.2520 190° South 548 631 32,000  Level FlightAware ADS-B
Mon 06:22:02 AM 34.3630 137.2500 181° South 546 628 32,000  Level FlightAware ADS-B
Mon 06:22:42 AM 34.2680 137.2410 184° South 531 611 32,000  Level FlightAware ADS-B
Mon 06:23:27 AM 34.1530 137.2180 189° South 521 600 32,000  Level FlightAware ADS-B
Mon 06:24:02 AM 34.0690 137.2000 190° South 519 597 32,000  Level FlightAware ADS-B
Mon 06:24:52 AM 33.9490 137.1730 191° South 520 598 32,000  Level FlightAware ADS-B
Mon 06:25:32 AM 33.8530 137.1520 190° South 526 605 32,000  Level FlightAware ADS-B
Mon 06:26:12 AM 33.7560 137.1300 191° South 526 605 32,000  Level FlightAware ADS-B
Mon 06:26:57 AM 33.6450 137.1060 190° South 519 597 32,000  Level FlightAware ADS-B
Mon 06:27:52 AM 33.5570 137.0860 191° South 519 597 32,000  Level FlightAware ADS-B
Mon 06:28:32 AM 33.4430 137.0620 190° South 520 598 32,000  Level FlightAware ADS-B
Mon 06:29:17 AM 33.3120 137.0330 190° South 521 600 32,000  Level FlightAware ADS-B
Mon 06:29:57 AM 33.2230 137.0130 191° South 523 602 32,000  Level FlightAware ADS-B
Mon 06:30:47 AM 33.1040 136.9880 190° South 523 602 32,000  Level FlightAware ADS-B
Mon 06:31:32 AM 33.0050 136.9670 190° South 523 602 32,000  Level FlightAware ADS-B
Mon 06:32:17 AM 32.8780 136.9390 190° South 522 601 32,000  Level FlightAware ADS-B
Mon 06:33:02 AM 32.7650 136.9150 190° South 519 597 32,000  Level FlightAware ADS-B
Mon 06:33:42 AM 32.6690 136.8950 190° South 523 602 32,000  Level FlightAware ADS-B
Mon 06:34:27 AM 32.5650 136.8720 191° South 521 600 32,000  Level FlightAware ADS-B
Mon 06:35:07 AM 32.4750 136.8530 190° South 519 597 32,000  Level FlightAware ADS-B
Mon 06:35:42 AM 32.3960 136.8360 190° South 510 587 32,000  Level FlightAware ADS-B
Mon 06:36:32 AM 32.2840 136.8130 190° South 509 586 32,000  Level FlightAware ADS-B
Mon 06:37:12 AM 32.1850 136.7920 190° South 508 585 32,000  Level FlightAware ADS-B
Mon 06:37:52 AM 32.0910 136.7720 190° South 508 585 32,000  Level FlightAware ADS-B
Mon 06:38:32 AM 32.0130 136.7550 190° South 508 585 32,000  Level FlightAware ADS-B
Mon 06:39:22 AM 31.9140 136.7350 190° South 508 585 32,000  Level FlightAware ADS-B
Mon 06:40:02 AM 31.8360 136.7190 190° South 508 585 32,000  Level FlightAware ADS-B
Mon 06:40:42 AM 31.7570 136.7020 190° South 508 585 32,000  Level FlightAware ADS-B
Mon 06:41:22 AM 31.6780 136.6860 190° South 508 585 32,000  Level FlightAware ADS-B
Mon 06:42:02 AM 31.6000 136.6700 190° South 508 585 32,000  Level FlightAware ADS-B
Mon 06:42:52 AM 31.5010 136.6490 190° South 508 585 32,000  Level FlightAware ADS-B
Mon 06:43:32 AM 31.4230 136.6330 190° South 508 585 32,000  Level FlightAware ADS-B
Mon 06:44:12 AM 31.3440 136.6170 190° South 508 585 32,000  Level FlightAware ADS-B
Mon 06:44:52 AM 31.2650 136.6010 190° South 508 585 32,000  Level FlightAware ADS-B
Mon 06:45:32 AM 31.1860 136.5840 190° South 508 585 32,000  Level FlightAware ADS-B
Mon 06:46:12 AM 31.1080 136.5680 190° South 508 585 32,000  Level FlightAware ADS-B
Mon 06:47:02 AM 31.0090 136.5480 190° South 508 585 32,000  Level FlightAware ADS-B
Mon 06:49:00 AM 30.8363 136.3521 224° Southwest  Level Estimated
Mon 06:50:00 AM 30.7484 136.2528 224° Southwest  Level Estimated
Mon 06:51:00 AM 30.6601 136.1532 224° Southwest  Level Estimated
Mon 06:52:00 AM 30.5716 136.0538 224° Southwest  Level Estimated
Mon 06:53:00 AM 30.4831 135.9546 224° Southwest  Level Estimated
Mon 06:54:00 AM 30.3945 135.8555 224° Southwest  Level Estimated
Mon 06:55:00 AM 30.3058 135.7566 224° Southwest  Level Estimated
Mon 06:56:00 AM 30.2171 135.6579 224° Southwest  Level Estimated
Mon 06:57:00 AM 30.1283 135.5594 224° Southwest  Level Estimated
Mon 06:58:00 AM 30.0394 135.4611 224° Southwest  Level Estimated
Mon 06:59:00 AM 29.9504 135.3629 224° Southwest  Level Estimated
Mon 07:00:00 AM 29.8614 135.2650 224° Southwest  Level Estimated
Mon 07:01:00 AM 29.7723 135.1671 224° Southwest  Level Estimated
Mon 07:02:00 AM 29.6831 135.0695 224° Southwest  Level Estimated
Mon 07:03:00 AM 29.5939 134.9720 224° Southwest  Level Estimated
Mon 07:04:00 AM 29.5045 134.8748 223° Southwest  Level Estimated
Mon 07:05:00 AM 29.4151 134.7776 223° Southwest  Level Estimated
Mon 07:06:00 AM 29.3257 134.6807 223° Southwest  Level Estimated
Mon 07:07:00 AM 29.2362 134.5839 223° Southwest  Level Estimated
Mon 07:08:00 AM 29.1466 134.4873 223° Southwest  Level Estimated
Mon 07:09:00 AM 29.0569 134.3909 223° Southwest  Level Estimated
Mon 07:10:00 AM 28.9671 134.2946 223° Southwest  Level Estimated
Mon 07:11:00 AM 28.8773 134.1985 223° Southwest  Level Estimated
Mon 07:12:00 AM 28.7875 134.1025 223° Southwest  Level Estimated
Mon 07:13:00 AM 28.6975 134.0068 223° Southwest  Level Estimated
Mon 07:14:00 AM 28.6075 133.9112 223° Southwest  Level Estimated
Mon 07:15:00 AM 28.5178 133.8161 223° Southwest  Level Estimated
Mon 07:16:00 AM 28.4281 133.7213 223° Southwest  Level Estimated
Mon 07:17:00 AM 28.3383 133.6266 223° Southwest  Level Estimated
Mon 07:18:00 AM 28.2484 133.5320 223° Southwest  Level Estimated
Mon 07:19:00 AM 28.1585 133.4377 223° Southwest  Level Estimated
Mon 07:20:00 AM 28.0685 133.3434 223° Southwest  Level Estimated
Mon 07:21:00 AM 27.9784 133.2494 223° Southwest  Level Estimated
Mon 07:22:00 AM 27.8883 133.1555 223° Southwest  Level Estimated
Mon 07:23:00 AM 27.7981 133.0617 223° Southwest  Level Estimated
Mon 07:24:00 AM 27.7078 132.9681 223° Southwest  Level Estimated
Mon 07:25:00 AM 27.6171 132.8743 223° Southwest  Level Estimated
Mon 07:26:00 AM 27.5263 132.7806 222° Southwest  Level Estimated
Mon 07:27:00 AM 27.4354 132.6870 222° Southwest  Level Estimated
Mon 07:28:00 AM 27.3445 132.5936 222° Southwest  Level Estimated
Mon 07:29:00 AM 27.2535 132.5004 222° Southwest  Level Estimated
Mon 07:30:00 AM 27.1625 132.4073 222° Southwest  Level Estimated
Mon 07:31:00 AM 27.0714 132.3144 222° Southwest  Level Estimated
Mon 07:32:00 AM 26.9802 132.2216 222° Southwest  Level Estimated
Mon 07:33:00 AM 26.8890 132.1290 222° Southwest  Level Estimated
Mon 07:34:00 AM 26.7977 132.0365 222° Southwest  Level Estimated
Mon 07:35:00 AM 26.7064 131.9441 222° Southwest  Level Estimated
Mon 07:36:00 AM 26.6150 131.8519 222° Southwest  Level Estimated
Mon 07:37:00 AM 26.5235 131.7599 222° Southwest  Level Estimated
Mon 07:38:00 AM 26.4320 131.6680 222° Southwest  Level Estimated
Mon 07:39:00 AM 26.3404 131.5763 222° Southwest  Level Estimated
Mon 07:40:00 AM 26.2488 131.4847 222° Southwest  Level Estimated
Mon 07:41:00 AM 26.1571 131.3932 222° Southwest  Level Estimated
Mon 07:42:00 AM 26.0653 131.3019 222° Southwest  Level Estimated
Mon 07:43:00 AM 25.9735 131.2107 222° Southwest  Level Estimated
Mon 07:44:00 AM 25.8817 131.1197 222° Southwest  Level Estimated
Mon 07:45:00 AM 25.7897 131.0288 222° Southwest  Level Estimated
Mon 07:46:00 AM 25.6978 130.9380 222° Southwest  Level Estimated
Mon 07:47:00 AM 25.6057 130.8474 222° Southwest  Level Estimated
Mon 07:48:00 AM 25.5136 130.7570 222° Southwest  Level Estimated
Mon 07:49:00 AM 25.4215 130.6666 222° Southwest  Level Estimated
Mon 07:50:00 AM 25.3293 130.5764 221° Southwest  Level Estimated
Mon 07:51:00 AM 25.2370 130.4864 221° Southwest  Level Estimated
Mon 07:52:00 AM 25.1447 130.3965 221° Southwest  Level Estimated
Mon 07:53:00 AM 25.0523 130.3067 221° Southwest  Level Estimated
Mon 07:54:00 AM 24.9599 130.2170 221° Southwest  Level Estimated
Mon 07:55:00 AM 24.8675 130.1275 221° Southwest  Level Estimated
Mon 07:56:00 AM 24.7749 130.0381 221° Southwest  Level Estimated
Mon 07:57:00 AM 24.6823 129.9489 221° Southwest  Level Estimated
Mon 07:58:00 AM 24.5897 129.8598 221° Southwest  Level Estimated
Mon 07:59:00 AM 24.4970 129.7708 221° Southwest  Level Estimated
Mon 08:00:00 AM 24.4043 129.6820 221° Southwest  Level Estimated
Mon 08:01:00 AM 24.3115 129.5932 221° Southwest  Level Estimated
Mon 08:02:00 AM 24.2187 129.5047 221° Southwest  Level Estimated
Mon 08:03:00 AM 24.1258 129.4162 221° Southwest  Level Estimated
Mon 08:04:00 AM 24.0328 129.3279 221° Southwest  Level Estimated
Mon 08:05:00 AM 23.9398 129.2397 221° Southwest  Level Estimated
Mon 08:06:00 AM 23.8468 129.1516 221° Southwest  Level Estimated
Mon 08:07:00 AM 23.7537 129.0636 221° Southwest  Level Estimated
Mon 08:08:00 AM 23.6606 128.9758 221° Southwest  Level Estimated
Mon 08:09:00 AM 23.5674 128.8881 221° Southwest  Level Estimated
Mon 08:10:00 AM 23.4741 128.8006 221° Southwest  Level Estimated
Mon 08:11:00 AM 23.3808 128.7131 221° Southwest  Level Estimated
Mon 08:12:00 AM 23.2875 128.6258 221° Southwest  Level Estimated
Mon 08:13:00 AM 23.1941 128.5386 221° Southwest  Level Estimated
Mon 08:14:00 AM 23.1007 128.4515 221° Southwest  Level Estimated
Mon 08:15:00 AM 23.0072 128.3645 221° Southwest  Level Estimated
Mon 08:16:00 AM 22.9137 128.2777 221° Southwest  Level Estimated
Mon 08:17:00 AM 22.8201 128.1910 221° Southwest  Level Estimated
Mon 08:18:00 AM 22.7265 128.1044 220° Southwest  Level Estimated
Mon 08:19:00 AM 22.6328 128.0179 220° Southwest  Level Estimated
Mon 08:20:00 AM 22.5391 127.9315 220° Southwest  Level Estimated
Mon 08:21:00 AM 22.4453 127.8453 220° Southwest  Level Estimated
Mon 08:22:00 AM 22.3515 127.7591 220° Southwest  Level Estimated
Mon 08:23:00 AM 22.2577 127.6731 220° Southwest  Level Estimated
Mon 08:24:00 AM 22.1637 127.5872 220° Southwest  Level Estimated
Mon 08:25:00 AM 22.0698 127.5014 220° Southwest  Level Estimated
Mon 08:26:00 AM 21.9758 127.4157 220° Southwest  Level Estimated
Mon 08:27:00 AM 21.8818 127.3302 220° Southwest  Level Estimated
Mon 08:28:00 AM 21.7877 127.2447 220° Southwest  Level Estimated
Mon 08:29:00 AM 21.6936 127.1594 220° Southwest  Level Estimated
Mon 08:30:00 AM 21.5994 127.0742 220° Southwest  Level Estimated
Mon 08:31:00 AM 21.5052 126.9891 220° Southwest  Level Estimated
Mon 08:32:00 AM 21.4110 126.9041 220° Southwest  Level Estimated
Mon 08:33:00 AM 21.3167 126.8192 220° Southwest  Level Estimated
Mon 08:34:00 AM 21.2223 126.7344 220° Southwest  Level Estimated
Mon 08:35:00 AM 21.1280 126.6497 220° Southwest  Level Estimated
Mon 08:36:00 AM 21.0335 126.5651 220° Southwest  Level Estimated
Mon 08:37:00 AM 20.9391 126.4807 220° Southwest  Level Estimated
Mon 08:38:00 AM 20.8446 126.3963 220° Southwest  Level Estimated
Mon 08:39:00 AM 20.7500 126.3121 220° Southwest  Level Estimated
Mon 08:40:00 AM 20.6554 126.2279 220° Southwest  Level Estimated
Mon 08:41:00 AM 20.5608 126.1439 220° Southwest  Level Estimated
Mon 08:42:00 AM 20.4661 126.0600 220° Southwest  Level Estimated
Mon 08:43:00 AM 20.3714 125.9761 220° Southwest  Level Estimated
Mon 08:44:00 AM 20.2767 125.8924 220° Southwest  Level Estimated
Mon 08:45:00 AM 20.1819 125.8088 220° Southwest  Level Estimated
Mon 08:46:00 AM 20.0870 125.7253 220° Southwest  Level Estimated
Mon 08:47:00 AM 19.9922 125.6418 220° Southwest  Level Estimated
Mon 08:48:00 AM 19.8973 125.5585 220° Southwest  Level Estimated
Mon 08:49:00 AM 19.8023 125.4753 220° Southwest  Level Estimated
Mon 08:50:00 AM 19.7073 125.3922 219° Southwest  Level Estimated
Mon 08:51:00 AM 19.6123 125.3092 219° Southwest  Level Estimated
Mon 08:52:00 AM 19.5173 125.2262 219° Southwest  Level Estimated
Mon 08:53:00 AM 19.4222 125.1434 219° Southwest  Level Estimated
Mon 08:54:00 AM 19.3270 125.0607 219° Southwest  Level Estimated
Mon 08:55:00 AM 19.2319 124.9780 219° Southwest  Level Estimated
Mon 08:56:00 AM 19.1367 124.8955 219° Southwest  Level Estimated
Mon 08:57:00 AM 19.0414 124.8130 219° Southwest  Level Estimated
Mon 08:58:00 AM 18.9461 124.7307 219° Southwest  Level Estimated
Mon 08:59:00 AM 18.8508 124.6484 219° Southwest  Level Estimated
Mon 09:00:00 AM 18.7555 124.5663 219° Southwest  Level Estimated
Mon 09:01:00 AM 18.6601 124.4842 219° Southwest  Level Estimated
Mon 09:02:00 AM 18.5646 124.4022 219° Southwest  Level Estimated
Mon 09:03:00 AM 18.4692 124.3203 219° Southwest  Level Estimated
Mon 09:04:00 AM 18.3737 124.2385 219° Southwest  Level Estimated
Mon 09:05:00 AM 18.2782 124.1568 219° Southwest  Level Estimated
Mon 09:06:00 AM 18.1826 124.0752 219° Southwest  Level Estimated
Mon 09:07:00 AM 18.0870 123.9937 219° Southwest  Level Estimated
Mon 09:08:00 AM 17.9914 123.9122 219° Southwest  Level Estimated
Mon 09:09:00 AM 17.8957 123.8309 219° Southwest  Level Estimated
Mon 09:10:00 AM 17.8000 123.7496 219° Southwest  Level Estimated
Mon 09:11:00 AM 17.7042 123.6685 219° Southwest  Level Estimated
Mon 09:12:00 AM 17.6085 123.5874 219° Southwest  Level Estimated
Mon 09:13:00 AM 17.5127 123.5064 219° Southwest  Level Estimated
Mon 09:14:00 AM 17.4168 123.4255 219° Southwest  Level Estimated
Mon 09:15:00 AM 17.3210 123.3446 219° Southwest  Level Estimated
Mon 09:16:00 AM 17.2251 123.2639 219° Southwest  Level Estimated
Mon 09:17:00 AM 17.1291 123.1832 219° Southwest  Level Estimated
Mon 09:18:00 AM 17.0332 123.1026 219° Southwest  Level Estimated
Mon 09:19:00 AM 16.9372 123.0221 219° Southwest  Level Estimated
Mon 09:20:00 AM 16.8412 122.9417 219° Southwest  Level Estimated
Mon 09:21:00 AM 16.7451 122.8614 219° Southwest  Level Estimated
Mon 09:22:00 AM 16.6490 122.7811 219° Southwest  Level Estimated
Mon 09:23:00 AM 16.5529 122.7010 219° Southwest  Level Estimated
Mon 09:24:00 AM 16.4567 122.6209 219° Southwest  Level Estimated
Mon 09:25:00 AM 16.3605 122.5409 219° Southwest  Level Estimated
Mon 09:26:00 AM 16.2643 122.4609 219° Southwest  Level Estimated
Mon 09:27:00 AM 16.1681 122.3811 219° Southwest  Level Estimated
Mon 09:28:00 AM 16.0718 122.3013 219° Southwest  Level Estimated
Mon 09:29:00 AM 15.9755 122.2216 219° Southwest  Level Estimated
Mon 09:30:00 AM 15.8792 122.1420 218° Southwest  Level Estimated
Mon 09:31:00 AM 15.7828 122.0624 218° Southwest  Level Estimated
Mon 09:32:00 AM 15.6865 121.9830 218° Southwest  Level Estimated
Mon 09:33:00 AM 15.5900 121.9036 218° Southwest  Level Estimated
Mon 09:34:00 AM 15.4936 121.8242 218° Southwest  Level Estimated
Mon 09:35:00 AM 15.3971 121.7450 218° Southwest  Level Estimated
Mon 09:36:00 AM 15.3006 121.6658 218° Southwest  Level Estimated
Mon 09:37:00 AM 15.2041 121.5867 218° Southwest  Level Estimated
Mon 09:38:00 AM 15.1075 121.5077 218° Southwest  Level Estimated
Mon 09:39:00 AM 15.0110 121.4287 218° Southwest  Level Estimated
Mon 09:40:00 AM 14.9143 121.3498 218° Southwest  Level Estimated
Mon 09:41:00 AM 14.8177 121.2710 218° Southwest  Level Estimated
Mon 09:42:00 AM 14.7210 121.1923 218° Southwest  Level Estimated
Mon 09:43:00 AM 14.6243 121.1136 218° Southwest  Level Estimated

Login

Don't have an account? Register now (free) for customized features, flight alerts, and more!